sensor_id;sensor_type;location;lat;lon;timestamp;pressure;altitude;pressure_sealevel;temperature;humidity
10840;BME280;5473;42.706;23.328;2023-02-23T00:02:11;4293.50;;;-142.93;100.00
10840;BME280;5473;42.706;23.328;2023-02-23T00:04:39;3789.19;;;-142.93;100.00
10840;BME280;5473;42.706;23.328;2023-02-23T00:07:06;3537.09;;;-142.93;100.00
10840;BME280;5473;42.706;23.328;2023-02-23T00:09:34;3284.97;;;-142.93;100.00
10840;BME280;5473;42.706;23.328;2023-02-23T00:12:02;2780.84;;;-142.93;100.00
10840;BME280;5473;42.706;23.328;2023-02-23T00:14:33;2780.84;;;-142.93;100.00
10840;BME280;5473;42.706;23.328;2023-02-23T00:17:02;3032.91;;;-142.93;100.00
10840;BME280;5473;42.706;23.328;2023-02-23T00:19:28;3032.91;;;-142.93;100.00
10840;BME280;5473;42.706;23.328;2023-02-23T00:21:59;3032.91;;;-142.93;100.00
10840;BME280;5473;42.706;23.328;2023-02-23T00:24:25;3032.91;;;-142.93;100.00
10840;BME280;5473;42.706;23.328;2023-02-23T00:26:52;3032.91;;;-142.93;100.00
10840;BME280;5473;42.706;23.328;2023-02-23T00:29:20;3284.97;;;-142.93;100.00
10840;BME280;5473;42.706;23.328;2023-02-23T00:31:48;3284.97;;;-142.93;100.00
10840;BME280;5473;42.706;23.328;2023-02-23T00:34:16;3284.97;;;-142.93;100.00
10840;BME280;5473;42.706;23.328;2023-02-23T00:36:48;2780.84;;;-142.93;100.00
10840;BME280;5473;42.706;23.328;2023-02-23T00:39:16;2528.81;;;-142.93;100.00
10840;BME280;5473;42.706;23.328;2023-02-23T00:41:46;2276.78;;;-142.93;100.00
10840;BME280;5473;42.706;23.328;2023-02-23T00:44:13;2024.78;;;-142.93;100.00
10840;BME280;5473;42.706;23.328;2023-02-23T00:46:41;1772.81;;;-142.93;100.00
10840;BME280;5473;42.706;23.328;2023-02-23T00:49:09;1772.81;;;-142.93;100.00
10840;BME280;5473;42.706;23.328;2023-02-23T00:51:36;1520.84;;;-142.93;100.00
10840;BME280;5473;42.706;23.328;2023-02-23T00:54:04;1268.91;;;-142.93;100.00
10840;BME280;5473;42.706;23.328;2023-02-23T00:56:32;1268.91;;;-142.93;100.00
10840;BME280;5473;42.706;23.328;2023-02-23T00:58:59;1016.97;;;-142.93;100.00
10840;BME280;5473;42.706;23.328;2023-02-23T01:01:26;765.09;;;-142.93;100.00
10840;BME280;5473;42.706;23.328;2023-02-23T01:03:53;261.34;;;-142.93;100.00
10840;BME280;5473;42.706;23.328;2023-02-23T01:06:21;9.50;;;-142.93;100.00
10840;BME280;5473;42.706;23.328;2023-02-23T01:08:49;-494.16;;;-142.93;100.00
10840;BME280;5473;42.706;23.328;2023-02-23T01:11:19;-745.94;;;-142.93;100.00
10840;BME280;5473;42.706;23.328;2023-02-23T01:13:51;-1249.44;;;-142.93;100.00
10840;BME280;5473;42.706;23.328;2023-02-23T01:16:20;-1501.19;;;-142.93;100.00
10840;BME280;5473;42.706;23.328;2023-02-23T01:18:48;-1752.88;;;-142.93;100.00
10840;BME280;5473;42.706;23.328;2023-02-23T01:21:17;-2004.56;;;-142.93;100.00
10840;BME280;5473;42.706;23.328;2023-02-23T01:23:44;-2256.25;;;-142.93;100.00
10840;BME280;5473;42.706;23.328;2023-02-23T01:26:14;-2759.53;;;-142.93;100.00
10840;BME280;5473;42.706;23.328;2023-02-23T01:28:41;-3011.16;;;-142.93;100.00
10840;BME280;5473;42.706;23.328;2023-02-23T01:31:09;-3011.16;;;-142.93;100.00
10840;BME280;5473;42.706;23.328;2023-02-23T01:33:36;-3262.75;;;-142.93;100.00
10840;BME280;5473;42.706;23.328;2023-02-23T01:36:03;-3514.31;;;-142.93;100.00
10840;BME280;5473;42.706;23.328;2023-02-23T01:38:30;-3514.31;;;-142.93;100.00
10840;BME280;5473;42.706;23.328;2023-02-23T01:40:57;-3765.88;;;-142.93;100.00
10840;BME280;5473;42.706;23.328;2023-02-23T01:43:23;-3765.88;;;-142.93;100.00
10840;BME280;5473;42.706;23.328;2023-02-23T01:45:53;-3765.88;;;-142.93;100.00
10840;BME280;5473;42.706;23.328;2023-02-23T01:48:23;-3765.88;;;-142.93;100.00
10840;BME280;5473;42.706;23.328;2023-02-23T01:50:54;-4017.41;;;-142.93;100.00
10840;BME280;5473;42.706;23.328;2023-02-23T01:53:24;-4268.91;;;-142.93;100.00
10840;BME280;5473;42.706;23.328;2023-02-23T01:55:54;-4268.91;;;-142.93;100.00
10840;BME280;5473;42.706;23.328;2023-02-23T01:58:23;-4017.41;;;-142.93;100.00
10840;BME280;5473;42.706;23.328;2023-02-23T02:00:54;-4017.41;;;-142.93;100.00
10840;BME280;5473;42.706;23.328;2023-02-23T02:03:27;-4017.41;;;-142.93;100.00
10840;BME280;5473;42.706;23.328;2023-02-23T02:05:57;-4017.41;;;-142.93;100.00
10840;BME280;5473;42.706;23.328;2023-02-23T02:08:27;-4017.41;;;-142.93;100.00
10840;BME280;5473;42.706;23.328;2023-02-23T02:10:55;-4017.41;;;-142.93;100.00
10840;BME280;5473;42.706;23.328;2023-02-23T02:13:25;-4017.41;;;-142.93;100.00
10840;BME280;5473;42.706;23.328;2023-02-23T02:16:11;-4017.41;;;-142.93;100.00
10840;BME280;5473;42.706;23.328;2023-02-23T02:18:58;-4268.91;;;-142.93;100.00
10840;BME280;5473;42.706;23.328;2023-02-23T02:21:49;-4520.41;;;-142.93;100.00
10840;BME280;5473;42.706;23.328;2023-02-23T02:27:30;-5023.34;;;-142.93;100.00
10840;BME280;5473;42.706;23.328;2023-02-23T02:30:31;-5274.78;;;-142.93;100.00
10840;BME280;5473;42.706;23.328;2023-02-23T02:33:38;-5274.78;;;-142.93;100.00
10840;BME280;5473;42.706;23.328;2023-02-23T02:39:22;-5023.34;;;-142.93;100.00
10840;BME280;5473;42.706;23.328;2023-02-23T02:42:07;-5023.34;;;-142.93;100.00
10840;BME280;5473;42.706;23.328;2023-02-23T02:44:46;-5023.34;;;-142.93;100.00
10840;BME280;5473;42.706;23.328;2023-02-23T02:47:19;-5023.34;;;-142.93;100.00
10840;BME280;5473;42.706;23.328;2023-02-23T02:49:51;-5023.34;;;-142.93;100.00
10840;BME280;5473;42.706;23.328;2023-02-23T02:52:26;-5023.34;;;-142.93;100.00
10840;BME280;5473;42.706;23.328;2023-02-23T02:55:01;-5023.34;;;-142.93;100.00
10840;BME280;5473;42.706;23.328;2023-02-23T02:57:31;-5274.78;;;-142.93;100.00
10840;BME280;5473;42.706;23.328;2023-02-23T02:59:59;-5023.34;;;-142.93;100.00
10840;BME280;5473;42.706;23.328;2023-02-23T03:02:44;-5023.34;;;-142.93;100.00
10840;BME280;5473;42.706;23.328;2023-02-23T03:05:40;-4771.91;;;-142.93;100.00
10840;BME280;5473;42.706;23.328;2023-02-23T03:08:30;-4771.91;;;-142.93;100.00
10840;BME280;5473;42.706;23.328;2023-02-23T03:11:19;-4771.91;;;-142.93;100.00
10840;BME280;5473;42.706;23.328;2023-02-23T03:14:13;-4771.91;;;-142.93;100.00
10840;BME280;5473;42.706;23.328;2023-02-23T03:17:05;-4771.91;;;-142.93;100.00
10840;BME280;5473;42.706;23.328;2023-02-23T03:19:56;-4771.91;;;-142.93;100.00
10840;BME280;5473;42.706;23.328;2023-02-23T03:22:49;-5023.34;;;-142.93;100.00
10840;BME280;5473;42.706;23.328;2023-02-23T03:25:46;-5023.34;;;-142.93;100.00
10840;BME280;5473;42.706;23.328;2023-02-23T03:28:36;-5274.78;;;-142.93;100.00
10840;BME280;5473;42.706;23.328;2023-02-23T03:31:31;-5274.78;;;-142.93;100.00
10840;BME280;5473;42.706;23.328;2023-02-23T03:34:21;-5526.22;;;-142.93;100.00
10840;BME280;5473;42.706;23.328;2023-02-23T03:37:18;-5777.63;;;-142.93;100.00
10840;BME280;5473;42.706;23.328;2023-02-23T03:40:07;-6029.00;;;-142.93;100.00
10840;BME280;5473;42.706;23.328;2023-02-23T03:42:55;-6029.00;;;-142.93;100.00
10840;BME280;5473;42.706;23.328;2023-02-23T03:45:45;-6280.34;;;-142.93;100.00
10840;BME280;5473;42.706;23.328;2023-02-23T03:48:33;-6280.34;;;-142.93;100.00
10840;BME280;5473;42.706;23.328;2023-02-23T03:51:21;-6531.69;;;-142.93;100.00
10840;BME280;5473;42.706;23.328;2023-02-23T03:54:11;-6783.03;;;-142.93;100.00
10840;BME280;5473;42.706;23.328;2023-02-23T03:56:58;-7034.31;;;-142.93;100.00
10840;BME280;5473;42.706;23.328;2023-02-23T03:59:47;-7034.31;;;-142.93;100.00
10840;BME280;5473;42.706;23.328;2023-02-23T04:02:35;-7034.31;;;-142.93;100.00
10840;BME280;5473;42.706;23.328;2023-02-23T04:05:21;-7034.31;;;-142.93;100.00
10840;BME280;5473;42.706;23.328;2023-02-23T04:08:08;-7034.31;;;-142.93;100.00
10840;BME280;5473;42.706;23.328;2023-02-23T04:11:00;-7285.59;;;-142.93;100.00
10840;BME280;5473;42.706;23.328;2023-02-23T04:13:47;-7536.88;;;-142.93;100.00
10840;BME280;5473;42.706;23.328;2023-02-23T04:16:15;-7536.88;;;-142.93;100.00
10840;BME280;5473;42.706;23.328;2023-02-23T04:18:42;-7788.13;;;-142.93;100.00
10840;BME280;5473;42.706;23.328;2023-02-23T04:21:09;-7788.13;;;-142.93;100.00
10840;BME280;5473;42.706;23.328;2023-02-23T04:23:37;-8039.34;;;-142.93;100.00
10840;BME280;5473;42.706;23.328;2023-02-23T04:26:05;-8290.56;;;-142.93;100.00
10840;BME280;5473;42.706;23.328;2023-02-23T04:28:32;-8290.56;;;-142.93;100.00
10840;BME280;5473;42.706;23.328;2023-02-23T04:30:58;-8290.56;;;-142.93;100.00
10840;BME280;5473;42.706;23.328;2023-02-23T04:33:26;-8290.56;;;-142.93;100.00
10840;BME280;5473;42.706;23.328;2023-02-23T04:35:54;-8290.56;;;-142.93;100.00
10840;BME280;5473;42.706;23.328;2023-02-23T04:38:21;-8290.56;;;-142.93;100.00
10840;BME280;5473;42.706;23.328;2023-02-23T04:40:48;-8290.56;;;-142.93;100.00
10840;BME280;5473;42.706;23.328;2023-02-23T04:43:15;-8290.56;;;-142.93;100.00
10840;BME280;5473;42.706;23.328;2023-02-23T04:45:43;-8290.56;;;-142.93;100.00
10840;BME280;5473;42.706;23.328;2023-02-23T04:48:10;-8290.56;;;-142.93;100.00
10840;BME280;5473;42.706;23.328;2023-02-23T04:50:37;-8290.56;;;-142.93;100.00
10840;BME280;5473;42.706;23.328;2023-02-23T04:53:05;-8290.56;;;-142.93;100.00
10840;BME280;5473;42.706;23.328;2023-02-23T04:55:32;-8290.56;;;-142.93;100.00
10840;BME280;5473;42.706;23.328;2023-02-23T04:58:00;-8290.56;;;-142.93;100.00
10840;BME280;5473;42.706;23.328;2023-02-23T05:00:27;-8290.56;;;-142.93;100.00
10840;BME280;5473;42.706;23.328;2023-02-23T05:02:54;-8290.56;;;-142.93;100.00
10840;BME280;5473;42.706;23.328;2023-02-23T05:05:21;-8541.75;;;-142.93;100.00
10840;BME280;5473;42.706;23.328;2023-02-23T05:07:48;-8541.75;;;-142.93;100.00
10840;BME280;5473;42.706;23.328;2023-02-23T05:10:16;-8541.75;;;-142.93;100.00
10840;BME280;5473;42.706;23.328;2023-02-23T05:12:43;-8792.91;;;-142.93;100.00
10840;BME280;5473;42.706;23.328;2023-02-23T05:15:10;-9044.06;;;-142.93;100.00
10840;BME280;5473;42.706;23.328;2023-02-23T05:17:38;-9044.06;;;-142.93;100.00
10840;BME280;5473;42.706;23.328;2023-02-23T05:20:08;-9295.19;;;-142.93;100.00
10840;BME280;5473;42.706;23.328;2023-02-23T05:22:35;-9295.19;;;-142.93;100.00
10840;BME280;5473;42.706;23.328;2023-02-23T05:25:02;-9546.28;;;-142.93;100.00
10840;BME280;5473;42.706;23.328;2023-02-23T05:27:31;-9546.28;;;-142.93;100.00
10840;BME280;5473;42.706;23.328;2023-02-23T05:29:58;-9546.28;;;-142.93;100.00
10840;BME280;5473;42.706;23.328;2023-02-23T05:32:25;-9546.28;;;-142.93;100.00
10840;BME280;5473;42.706;23.328;2023-02-23T05:34:52;-9546.28;;;-142.93;100.00
10840;BME280;5473;42.706;23.328;2023-02-23T05:37:19;-9295.19;;;-142.93;100.00
10840;BME280;5473;42.706;23.328;2023-02-23T05:39:46;-9295.19;;;-142.93;100.00
10840;BME280;5473;42.706;23.328;2023-02-23T05:42:13;-9546.28;;;-142.93;100.00
10840;BME280;5473;42.706;23.328;2023-02-23T05:44:41;-9546.28;;;-142.93;100.00
10840;BME280;5473;42.706;23.328;2023-02-23T05:47:07;-9546.28;;;-142.93;100.00
10840;BME280;5473;42.706;23.328;2023-02-23T05:49:35;-9797.38;;;-142.93;100.00
10840;BME280;5473;42.706;23.328;2023-02-23T05:52:02;-9797.38;;;-142.93;100.00
10840;BME280;5473;42.706;23.328;2023-02-23T05:54:28;-10048.47;;;-142.93;100.00
10840;BME280;5473;42.706;23.328;2023-02-23T05:56:55;-10048.47;;;-142.93;100.00
10840;BME280;5473;42.706;23.328;2023-02-23T05:59:22;-10048.47;;;-142.93;100.00
10840;BME280;5473;42.706;23.328;2023-02-23T06:01:51;-9797.38;;;-142.93;100.00
10840;BME280;5473;42.706;23.328;2023-02-23T06:04:17;-9044.06;;;-142.93;100.00
10840;BME280;5473;42.706;23.328;2023-02-23T06:06:45;-7285.59;;;-142.93;100.00
10840;BME280;5473;42.706;23.328;2023-02-23T06:09:12;-4520.41;;;-142.93;100.00
10840;BME280;5473;42.706;23.328;2023-02-23T06:11:38;-1501.19;;;-142.93;100.00
10840;BME280;5473;42.706;23.328;2023-02-23T06:14:05;1268.91;;;-142.93;100.00
10840;BME280;5473;42.706;23.328;2023-02-23T06:16:32;6311.41;;;-142.93;100.00
10840;BME280;5473;42.706;23.328;2023-02-23T06:19:00;13889.69;;;-142.93;100.00
10840;BME280;5473;42.706;23.328;2023-02-23T06:21:26;19964.84;;;-142.93;100.00
10840;BME280;5473;42.706;23.328;2023-02-23T06:23:53;27259.00;;;-142.93;100.00
10840;BME280;5473;42.706;23.328;2023-02-23T06:26:20;31020.34;;;-142.93;100.00
10840;BME280;5473;42.706;23.328;2023-02-23T06:28:47;33458.03;;;-142.93;100.00
10840;BME280;5473;42.706;23.328;2023-02-23T06:31:13;34251.09;;;-142.93;100.00
10840;BME280;5473;42.706;23.328;2023-02-23T06:33:40;35255.16;;;-142.93;100.00
10840;BME280;5473;42.706;23.328;2023-02-23T06:36:08;35273.03;;;-142.93;100.00
10840;BME280;5473;42.706;23.328;2023-02-23T06:38:35;35217.38;;;-142.93;100.00
10840;BME280;5473;42.706;23.328;2023-02-23T06:41:06;35452.00;;;-142.93;100.00
10840;BME280;5473;42.706;23.328;2023-02-23T06:43:33;35619.06;;;-142.93;100.00
10840;BME280;5473;42.706;23.328;2023-02-23T06:46:00;35607.13;;;-142.93;100.00
10840;BME280;5473;42.706;23.328;2023-02-23T06:48:27;36201.81;;;-142.93;100.00
10840;BME280;5473;42.706;23.328;2023-02-23T06:50:53;36957.75;;;-142.93;100.00
10840;BME280;5473;42.706;23.328;2023-02-23T06:53:21;37077.09;;;-142.93;100.00
10840;BME280;5473;42.706;23.328;2023-02-23T06:55:49;36808.53;;;-142.93;100.00
10840;BME280;5473;42.706;23.328;2023-02-23T06:58:16;36925.91;;;-142.93;100.00
10840;BME280;5473;42.706;23.328;2023-02-23T07:00:43;37025.38;;;-142.93;100.00
10840;BME280;5473;42.706;23.328;2023-02-23T07:03:09;37246.22;;;-142.93;100.00
10840;BME280;5473;42.706;23.328;2023-02-23T07:05:36;37618.31;;;-142.93;100.00
10840;BME280;5473;42.706;23.328;2023-02-23T07:08:03;37779.50;;;-142.93;100.00
10840;BME280;5473;42.706;23.328;2023-02-23T07:10:32;37783.50;;;-142.93;100.00
10840;BME280;5473;42.706;23.328;2023-02-23T07:12:59;37777.50;;;-142.93;100.00
10840;BME280;5473;42.706;23.328;2023-02-23T07:15:26;37759.59;;;-142.93;100.00
10840;BME280;5473;42.706;23.328;2023-02-23T07:17:53;37672.03;;;-142.93;100.00
10840;BME280;5473;42.706;23.328;2023-02-23T07:20:19;37638.22;;;-142.93;100.00
10840;BME280;5473;42.706;23.328;2023-02-23T07:22:46;37624.28;;;-142.93;93.65
10840;BME280;5473;42.706;23.328;2023-02-23T07:25:13;37602.41;;;-142.93;90.55
10840;BME280;5473;42.706;23.328;2023-02-23T07:27:41;37610.34;;;-142.93;86.69
10840;BME280;5473;42.706;23.328;2023-02-23T07:30:10;37626.28;;;-142.93;87.54
10840;BME280;5473;42.706;23.328;2023-02-23T07:32:37;37616.34;;;-142.93;85.66
10840;BME280;5473;42.706;23.328;2023-02-23T07:35:05;37630.25;;;-142.93;84.00
10840;BME280;5473;42.706;23.328;2023-02-23T07:37:32;37678.03;;;-142.93;84.86
10840;BME280;5473;42.706;23.328;2023-02-23T07:39:59;37691.94;;;-142.93;86.83
10840;BME280;5473;42.706;23.328;2023-02-23T07:42:25;37606.38;;;-142.93;84.68
10840;BME280;5473;42.706;23.328;2023-02-23T07:44:54;37646.19;;;-142.93;79.71
10840;BME280;5473;42.706;23.328;2023-02-23T07:47:20;37604.38;;;-142.93;77.73
10840;BME280;5473;42.706;23.328;2023-02-23T07:49:55;37632.25;;;-142.93;76.17
10840;BME280;5473;42.706;23.328;2023-02-23T07:52:22;37594.44;;;-142.93;75.77
10840;BME280;5473;42.706;23.328;2023-02-23T07:54:48;37600.41;;;-142.93;73.42
10840;BME280;5473;42.706;23.328;2023-02-23T07:57:15;37652.16;;;-142.93;73.33
10840;BME280;5473;42.706;23.328;2023-02-23T07:59:42;37600.41;;;-142.93;70.66
10840;BME280;5473;42.706;23.328;2023-02-23T08:02:12;37650.16;;;-142.93;71.21
10840;BME280;5473;42.706;23.328;2023-02-23T08:04:39;37648.16;;;-142.93;71.97
10840;BME280;5473;42.706;23.328;2023-02-23T08:07:07;37693.94;;;-142.93;72.19
10840;BME280;5473;42.706;23.328;2023-02-23T08:09:34;37664.09;;;-142.93;74.95
10840;BME280;5473;42.706;23.328;2023-02-23T08:12:01;37664.09;;;-142.93;72.67
10840;BME280;5473;42.706;23.328;2023-02-23T08:14:28;37727.75;;;-142.93;74.17
10840;BME280;5473;42.706;23.328;2023-02-23T08:16:55;37755.63;;;-142.93;78.14
10840;BME280;5473;42.706;23.328;2023-02-23T08:19:27;37680.00;;;-142.93;76.53
10840;BME280;5473;42.706;23.328;2023-02-23T08:21:54;37709.84;;;-142.93;78.72
10840;BME280;5473;42.706;23.328;2023-02-23T08:24:21;37674.03;;;-142.93;77.33
10840;BME280;5473;42.706;23.328;2023-02-23T08:26:48;37689.97;;;-142.93;74.81
10840;BME280;5473;42.706;23.328;2023-02-23T08:29:15;37652.16;;;-142.93;74.43
10840;BME280;5473;42.706;23.328;2023-02-23T08:31:42;37680.00;;;-142.93;74.50
10840;BME280;5473;42.706;23.328;2023-02-23T08:34:09;37672.03;;;-142.93;73.54
10840;BME280;5473;42.706;23.328;2023-02-23T08:36:37;37634.25;;;-142.93;72.34
10840;BME280;5473;42.706;23.328;2023-02-23T08:39:04;37566.59;;;-142.93;69.27
10840;BME280;5473;42.706;23.328;2023-02-23T08:41:32;37552.66;;;-142.93;67.37
10840;BME280;5473;42.706;23.328;2023-02-23T08:43:59;37560.63;;;-142.93;66.48
10840;BME280;5473;42.706;23.328;2023-02-23T08:46:25;37578.53;;;-142.93;66.58
10840;BME280;5473;42.706;23.328;2023-02-23T08:48:52;37504.91;;;-142.93;66.35
10840;BME280;5473;42.706;23.328;2023-02-23T08:51:19;37447.19;;;-142.93;62.74
10840;BME280;5473;42.706;23.328;2023-02-23T08:53:47;37502.91;;;-142.93;62.46
10840;BME280;5473;42.706;23.328;2023-02-23T08:56:14;37528.78;;;-142.93;63.43
10840;BME280;5473;42.706;23.328;2023-02-23T08:58:41;37570.56;;;-142.93;66.32
10840;BME280;5473;42.706;23.328;2023-02-23T09:01:15;37536.72;;;-142.93;64.84
10840;BME280;5473;42.706;23.328;2023-02-23T09:03:43;37494.94;;;-142.93;62.31
10840;BME280;5473;42.706;23.328;2023-02-23T09:06:12;37534.75;;;-142.93;62.27
10840;BME280;5473;42.706;23.328;2023-02-23T09:08:39;37660.09;;;-142.93;67.44
10840;BME280;5473;42.706;23.328;2023-02-23T09:11:07;37568.56;;;-142.93;66.09
10840;BME280;5473;42.706;23.328;2023-02-23T09:13:34;37566.59;;;-142.93;65.06
10840;BME280;5473;42.706;23.328;2023-02-23T09:16:01;37594.44;;;-142.93;66.70
10840;BME280;5473;42.706;23.328;2023-02-23T09:18:29;37520.81;;;-142.93;64.45
10840;BME280;5473;42.706;23.328;2023-02-23T09:20:57;37590.47;;;-142.93;63.50
10840;BME280;5473;42.706;23.328;2023-02-23T09:23:27;37540.72;;;-142.93;63.29
10840;BME280;5473;42.706;23.328;2023-02-23T09:25:54;37554.66;;;-142.93;62.76
10840;BME280;5473;42.706;23.328;2023-02-23T09:28:22;37546.69;;;-142.93;64.27
10840;BME280;5473;42.706;23.328;2023-02-23T09:30:48;37516.84;;;-142.93;62.36
10840;BME280;5473;42.706;23.328;2023-02-23T09:33:15;37496.94;;;-142.93;61.51
10840;BME280;5473;42.706;23.328;2023-02-23T09:35:42;37437.25;;;-142.93;60.05
10840;BME280;5473;42.706;23.328;2023-02-23T09:38:09;37433.25;;;-142.93;58.66
10840;BME280;5473;42.706;23.328;2023-02-23T09:40:43;37405.41;;;-142.93;58.52
10840;BME280;5473;42.706;23.328;2023-02-23T09:43:13;37371.59;;;-142.93;56.75
10840;BME280;5473;42.706;23.328;2023-02-23T09:45:46;37317.84;;;-142.93;55.69
10840;BME280;5473;42.706;23.328;2023-02-23T09:48:17;37230.31;;;-142.93;54.04
10840;BME280;5473;42.706;23.328;2023-02-23T09:50:48;37260.16;;;-142.93;53.78
10840;BME280;5473;42.706;23.328;2023-02-23T09:53:25;37419.34;;;-142.93;56.20
10840;BME280;5473;42.706;23.328;2023-02-23T09:55:54;37399.44;;;-142.93;55.96
10840;BME280;5473;42.706;23.328;2023-02-23T09:58:24;37365.63;;;-142.93;56.19
10840;BME280;5473;42.706;23.328;2023-02-23T10:01:20;37292.00;;;-142.93;54.78
10840;BME280;5473;42.706;23.328;2023-02-23T10:03:57;37230.31;;;-142.93;52.09
10840;BME280;5473;42.706;23.328;2023-02-23T10:06:25;37236.28;;;-142.93;52.00
10840;BME280;5473;42.706;23.328;2023-02-23T10:09:04;37375.56;;;-142.93;52.84
10840;BME280;5473;42.706;23.328;2023-02-23T10:11:38;37252.19;;;-142.93;52.55
10840;BME280;5473;42.706;23.328;2023-02-23T10:14:25;37226.34;;;-142.93;50.30
10840;BME280;5473;42.706;23.328;2023-02-23T10:17:08;37142.78;;;-142.93;48.44
10840;BME280;5473;42.706;23.328;2023-02-23T10:19:43;37214.41;;;-142.93;49.49
10840;BME280;5473;42.706;23.328;2023-02-23T10:22:13;37278.06;;;-142.93;49.85
10840;BME280;5473;42.706;23.328;2023-02-23T10:24:44;37238.28;;;-142.93;50.70
10840;BME280;5473;42.706;23.328;2023-02-23T10:27:15;37295.97;;;-142.93;50.66
10840;BME280;5473;42.706;23.328;2023-02-23T10:29:48;37276.06;;;-142.93;51.47
10840;BME280;5473;42.706;23.328;2023-02-23T10:32:20;37158.69;;;-142.93;49.11
10840;BME280;5473;42.706;23.328;2023-02-23T10:34:52;37198.47;;;-142.93;49.88
10840;BME280;5473;42.706;23.328;2023-02-23T10:37:21;37280.06;;;-142.93;51.05
10840;BME280;5473;42.706;23.328;2023-02-23T10:39:49;37270.09;;;-142.93;50.89
10840;BME280;5473;42.706;23.328;2023-02-23T10:42:20;37216.38;;;-142.93;50.28
10840;BME280;5473;42.706;23.328;2023-02-23T10:44:48;37230.31;;;-142.93;50.74
10840;BME280;5473;42.706;23.328;2023-02-23T10:47:16;37110.94;;;-142.93;49.03
10840;BME280;5473;42.706;23.328;2023-02-23T10:49:47;37077.09;;;-142.93;47.71
10840;BME280;5473;42.706;23.328;2023-02-23T10:52:19;37101.00;;;-142.93;46.46
10840;BME280;5473;42.706;23.328;2023-02-23T10:54:47;37152.72;;;-142.93;47.70
10840;BME280;5473;42.706;23.328;2023-02-23T10:57:23;37085.06;;;-142.93;46.49
10840;BME280;5473;42.706;23.328;2023-02-23T11:00:23;37061.19;;;-142.93;46.61
10840;BME280;5473;42.706;23.328;2023-02-23T11:02:57;37184.56;;;-142.93;47.53
10840;BME280;5473;42.706;23.328;2023-02-23T11:05:34;37148.72;;;-142.93;48.22
10840;BME280;5473;42.706;23.328;2023-02-23T11:08:09;37051.25;;;-142.93;47.26
10840;BME280;5473;42.706;23.328;2023-02-23T11:10:36;36997.53;;;-142.93;46.05
10840;BME280;5473;42.706;23.328;2023-02-23T11:13:03;37172.63;;;-142.93;47.39
10840;BME280;5473;42.706;23.328;2023-02-23T11:15:31;37136.81;;;-142.93;47.84
10840;BME280;5473;42.706;23.328;2023-02-23T11:18:00;37222.34;;;-142.93;48.13
10840;BME280;5473;42.706;23.328;2023-02-23T11:20:31;37264.13;;;-142.93;49.17
10840;BME280;5473;42.706;23.328;2023-02-23T11:23:00;37270.09;;;-142.93;49.63
10840;BME280;5473;42.706;23.328;2023-02-23T11:25:28;37220.38;;;-142.93;48.79
10840;BME280;5473;42.706;23.328;2023-02-23T11:27:56;37244.25;;;-142.93;49.79
10840;BME280;5473;42.706;23.328;2023-02-23T11:30:35;37176.59;;;-142.93;48.04
10840;BME280;5473;42.706;23.328;2023-02-23T11:33:07;37142.78;;;-142.93;46.99
10840;BME280;5473;42.706;23.328;2023-02-23T11:35:42;37226.34;;;-142.93;47.27
10840;BME280;5473;42.706;23.328;2023-02-23T11:38:15;37309.91;;;-142.93;49.00
10840;BME280;5473;42.706;23.328;2023-02-23T11:40:57;37343.72;;;-142.93;50.57
10840;BME280;5473;42.706;23.328;2023-02-23T11:43:24;37405.41;;;-142.93;51.23
10840;BME280;5473;42.706;23.328;2023-02-23T11:45:53;37443.22;;;-142.93;53.38
10840;BME280;5473;42.706;23.328;2023-02-23T11:48:24;37481.03;;;-142.93;53.91
10840;BME280;5473;42.706;23.328;2023-02-23T11:50:54;37349.69;;;-142.93;52.32
10840;BME280;5473;42.706;23.328;2023-02-23T11:53:27;37518.81;;;-142.93;55.21
10840;BME280;5473;42.706;23.328;2023-02-23T11:55:58;37481.03;;;-142.93;54.67
10840;BME280;5473;42.706;23.328;2023-02-23T11:58:32;37465.09;;;-142.93;53.35
10840;BME280;5473;42.706;23.328;2023-02-23T12:01:02;37411.38;;;-142.93;52.04
10840;BME280;5473;42.706;23.328;2023-02-23T12:03:35;37461.13;;;-142.93;53.45
10840;BME280;5473;42.706;23.328;2023-02-23T12:06:04;37427.28;;;-142.93;53.64
10840;BME280;5473;42.706;23.328;2023-02-23T12:08:38;37475.06;;;-142.93;53.42
10840;BME280;5473;42.706;23.328;2023-02-23T12:11:12;37461.13;;;-142.93;54.67
10840;BME280;5473;42.706;23.328;2023-02-23T12:13:44;37487.00;;;-142.93;55.11
10840;BME280;5473;42.706;23.328;2023-02-23T12:16:16;37512.84;;;-142.93;55.33
10840;BME280;5473;42.706;23.328;2023-02-23T12:18:48;37455.16;;;-142.93;53.84
10840;BME280;5473;42.706;23.328;2023-02-23T12:21:24;37393.47;;;-142.93;52.59
10840;BME280;5473;42.706;23.328;2023-02-23T12:24:03;37449.19;;;-142.93;52.48
10840;BME280;5473;42.706;23.328;2023-02-23T12:26:40;37492.97;;;-142.93;53.51
10840;BME280;5473;42.706;23.328;2023-02-23T12:29:18;37556.63;;;-142.93;55.04
10840;BME280;5473;42.706;23.328;2023-02-23T12:31:48;37552.66;;;-142.93;54.80
10840;BME280;5473;42.706;23.328;2023-02-23T12:34:20;37668.06;;;-142.93;57.69
10840;BME280;5473;42.706;23.328;2023-02-23T12:36:55;37632.25;;;-142.93;57.58
10840;BME280;5473;42.706;23.328;2023-02-23T12:39:27;37668.06;;;-142.93;57.97
10840;BME280;5473;42.706;23.328;2023-02-23T12:42:01;37693.94;;;-142.93;57.38
10840;BME280;5473;42.706;23.328;2023-02-23T12:44:36;37650.16;;;-142.93;57.99
10840;BME280;5473;42.706;23.328;2023-02-23T12:47:15;37685.97;;;-142.93;58.12
10840;BME280;5473;42.706;23.328;2023-02-23T12:49:49;37628.28;;;-142.93;57.78
10840;BME280;5473;42.706;23.328;2023-02-23T12:52:21;37689.97;;;-142.93;58.31
10840;BME280;5473;42.706;23.328;2023-02-23T12:54:51;37646.19;;;-142.93;59.19
10840;BME280;5473;42.706;23.328;2023-02-23T12:57:24;37664.09;;;-142.93;59.96
10840;BME280;5473;42.706;23.328;2023-02-23T13:00:29;37701.91;;;-142.93;61.35
10840;BME280;5473;42.706;23.328;2023-02-23T13:03:44;37717.81;;;-142.93;63.11
10840;BME280;5473;42.706;23.328;2023-02-23T13:06:20;37755.63;;;-142.93;63.61